Time;durP1;ratioP1;P1;durP2;ratioP2;P2;SDS_P1;SDS_P2;PMS_P1;PMS_P2;Temp;Humidity;BMP_temperature;BMP_pressure;BME280_temperature;BME280_humidity;BME280_pressure;Samples;Min_cycle;Max_cycle;Signal;HPM_P1;HPM_P2
2022/04/23 00:02:11;;;;;;;8.97;8.47;;;;;;;12.63;57.15;91875.78;5088928;28;20234;-78
2022/04/23 00:04:37;;;;;;;8.50;8.20;;;;;;;12.58;57.53;91899.50;5089945;28;20189;-78
2022/04/23 00:07:05;;;;;;;8.67;8.00;;;;;;;12.46;57.07;91881.00;5088517;28;20237;-78
2022/04/23 00:09:30;;;;;;;8.93;8.43;;;;;;;12.91;55.62;91892.72;5089434;28;20254;-80
2022/04/23 00:11:57;;;;;;;8.13;7.73;;;;;;;12.87;55.97;91907.53;5089332;28;20232;-78
2022/04/23 00:14:23;;;;;;;9.13;8.73;;;;;;;12.57;58.10;91918.91;5089449;28;20211;-78
2022/04/23 00:16:51;;;;;;;9.10;8.60;;;;;;;12.51;58.55;91907.78;5088718;28;20233;-78
2022/04/23 00:19:18;;;;;;;9.20;8.80;;;;;;;12.80;57.03;91849.59;5070421;28;20199;-77
2022/04/23 00:21:44;;;;;;;9.33;8.87;;;;;;;12.79;56.51;91867.13;5088938;28;20213;-80
2022/04/23 00:24:09;;;;;;;7.90;7.60;;;;;;;12.67;56.82;91898.41;5089041;28;20203;-79
2022/04/23 00:26:35;;;;;;;8.90;8.30;;;;;;;12.67;56.11;91853.13;5089229;28;20229;-78
2022/04/23 00:29:00;;;;;;;9.37;9.00;;;;;;;12.60;56.52;91853.59;5089302;28;20215;-80
2022/04/23 00:31:26;;;;;;;9.70;9.07;;;;;;;13.06;54.67;91865.31;5088197;28;20295;-80
2022/04/23 00:33:52;;;;;;;9.40;8.73;;;;;;;12.89;55.12;91869.44;5089459;28;20188;-79
2022/04/23 00:36:18;;;;;;;8.93;8.53;;;;;;;12.87;56.27;91852.50;5087656;28;20233;-76
2022/04/23 00:38:45;;;;;;;8.20;7.60;;;;;;;12.69;57.79;91872.69;5088959;28;20217;-78
2022/04/23 00:41:45;;;;;;;8.53;8.13;;;;;;;12.52;58.30;91848.34;5088559;28;20218;-79
2022/04/23 00:44:02;;;;;;;9.17;8.67;;;;;;;12.24;58.95;91888.97;5088576;28;20219;-78
2022/04/23 00:46:27;;;;;;;8.70;8.30;;;;;;;12.59;58.09;91874.88;5088966;28;20216;-78
2022/04/23 00:48:53;;;;;;;9.20;8.80;;;;;;;12.55;57.65;91814.47;5088728;28;20203;-79
2022/04/23 00:51:19;;;;;;;9.30;8.90;;;;;;;12.38;57.47;91848.53;5088559;28;20231;-79
2022/04/23 00:53:49;;;;;;;9.67;9.13;;;;;;;13.18;54.59;91833.97;5089628;28;20190;-79
2022/04/23 00:56:16;;;;;;;8.90;8.40;;;;;;;13.50;53.65;91846.53;5087599;28;20235;-78
2022/04/23 00:58:42;;;;;;;9.10;8.70;;;;;;;13.41;53.86;91869.38;5089381;28;20248;-78
2022/04/23 01:01:08;;;;;;;8.37;7.97;;;;;;;12.95;56.08;91880.53;5088353;28;20930;-79
2022/04/23 01:03:33;;;;;;;9.50;9.00;;;;;;;12.80;57.36;91891.50;5088694;28;20253;-79
2022/04/23 01:05:59;;;;;;;10.57;9.77;;;;;;;12.55;57.92;91884.41;5088770;28;20282;-78
2022/04/23 01:08:26;;;;;;;9.50;9.10;;;;;;;12.75;57.34;91878.53;5088421;28;20196;-77
2022/04/23 01:10:52;;;;;;;8.30;7.93;;;;;;;12.48;58.67;91905.03;5088735;28;20231;-79
2022/04/23 01:13:18;;;;;;;9.00;8.47;;;;;;;12.51;58.54;91904.44;5088489;28;20192;-79
2022/04/23 01:16:00;;;;;;;8.93;8.53;;;;;;;12.64;56.33;91893.03;5087880;28;20240;-79
2022/04/23 01:18:26;;;;;;;8.93;8.50;;;;;;;12.67;56.86;91897.63;5088398;28;21317;-79
2022/04/23 01:20:56;;;;;;;9.97;9.37;;;;;;;12.62;57.47;91908.28;5088331;28;20221;-78
2022/04/23 01:23:22;;;;;;;8.77;8.37;;;;;;;12.63;56.50;91899.34;5088159;28;20299;-79
2022/04/23 01:25:49;;;;;;;9.70;9.30;;;;;;;12.57;56.64;91897.97;5088781;28;20228;-77
2022/04/23 01:28:16;;;;;;;10.03;9.20;;;;;;;12.76;55.79;91906.28;5086616;28;20196;-78
2022/04/23 01:30:42;;;;;;;9.33;8.77;;;;;;;12.92;54.64;91899.50;5087415;28;20229;-79
2022/04/23 01:33:07;;;;;;;8.77;8.37;;;;;;;12.76;56.54;91880.09;5089719;28;20227;-78
2022/04/23 01:35:33;;;;;;;9.40;9.00;;;;;;;12.25;58.79;91878.22;5074299;28;20231;-77
2022/04/23 01:37:58;;;;;;;9.43;8.70;;;;;;;12.59;56.54;91878.22;5092894;28;20216;-82
2022/04/23 01:40:24;;;;;;;9.00;8.60;;;;;;;12.83;56.38;91891.66;5091971;28;20262;-78
2022/04/23 01:42:49;;;;;;;10.50;9.80;;;;;;;12.60;58.24;91892.09;5091837;28;20208;-79
2022/04/23 01:45:14;;;;;;;9.73;9.10;;;;;;;12.36;58.85;91902.22;5071152;28;20195;-78
2022/04/23 01:47:40;;;;;;;9.00;8.50;;;;;;;12.44;58.72;91910.09;5074512;28;20181;-78
2022/04/23 01:50:07;;;;;;;9.30;8.80;;;;;;;12.74;55.91;91885.66;5074583;28;20628;-78
2022/04/23 01:52:33;;;;;;;9.40;8.80;;;;;;;12.91;55.12;91905.81;5089987;28;20233;-78
2022/04/23 01:54:58;;;;;;;9.30;8.80;;;;;;;12.70;56.63;91905.66;5091075;28;20209;-78
2022/04/23 01:57:24;;;;;;;8.83;8.33;;;;;;;12.57;57.42;91900.56;5091771;28;20327;-78
2022/04/23 01:59:49;;;;;;;8.37;7.97;;;;;;;12.77;56.41;91892.88;5074169;28;20180;-79
2022/04/23 02:02:15;;;;;;;9.27;8.70;;;;;;;13.05;54.92;91872.38;5091801;28;20235;-79
2022/04/23 02:04:40;;;;;;;8.93;8.43;;;;;;;12.59;56.23;91852.06;5090386;28;20224;-79
2022/04/23 02:07:06;;;;;;;9.10;8.60;;;;;;;12.72;56.87;91907.97;5090846;28;20225;-77
2022/04/23 02:09:33;;;;;;;10.00;9.40;;;;;;;12.65;57.03;91920.75;5091248;28;20204;-79
2022/04/23 02:11:58;;;;;;;9.67;9.17;;;;;;;12.86;57.29;91911.97;5090621;28;20221;-78
2022/04/23 02:14:24;;;;;;;9.13;8.43;;;;;;;13.19;54.81;91904.44;5091638;28;20205;-78
2022/04/23 02:16:49;;;;;;;9.47;8.93;;;;;;;12.84;57.82;91923.88;5088498;28;20289;-79
2022/04/23 02:19:14;;;;;;;9.80;9.30;;;;;;;12.47;59.16;91929.66;5091427;28;20181;-78
2022/04/23 02:21:40;;;;;;;8.73;8.33;;;;;;;12.48;58.91;91905.03;5091676;28;20224;-79
2022/04/23 02:24:06;;;;;;;9.50;9.00;;;;;;;12.50;59.54;91913.34;5091173;28;20274;-79
2022/04/23 02:26:32;;;;;;;10.13;9.43;;;;;;;12.03;61.43;91916.81;5090387;28;20260;-79
2022/04/23 02:28:57;;;;;;;8.57;8.07;;;;;;;12.40;58.07;91906.56;5073659;28;20271;-79
2022/04/23 02:31:23;;;;;;;9.37;8.93;;;;;;;13.30;53.13;91903.03;5072435;28;20232;-78
2022/04/23 02:33:48;;;;;;;9.50;8.90;;;;;;;13.65;53.51;91922.06;5091702;28;20176;-80
2022/04/23 02:36:15;;;;;;;9.40;8.90;;;;;;;13.34;55.34;91924.91;5090071;28;20224;-79
2022/04/23 02:38:41;;;;;;;9.83;9.23;;;;;;;13.08;56.29;91915.53;5091399;28;20202;-79
2022/04/23 02:41:10;;;;;;;9.33;8.70;;;;;;;12.78;57.90;91915.38;5090393;28;20259;-79
2022/04/23 02:43:38;;;;;;;9.47;8.97;;;;;;;12.17;59.43;91909.59;5089986;28;20207;-79
2022/04/23 02:46:05;;;;;;;9.73;9.30;;;;;;;12.23;60.16;91926.72;5090781;28;20228;-80
2022/04/23 02:48:31;;;;;;;9.50;9.00;;;;;;;12.30;60.31;91924.41;5089705;28;20181;-77
2022/04/23 02:50:57;;;;;;;9.27;8.70;;;;;;;12.33;58.91;91919.34;5090327;28;20243;-78
2022/04/23 02:53:22;;;;;;;9.57;9.07;;;;;;;12.31;59.08;91910.25;5091498;28;20644;-75
2022/04/23 02:55:48;;;;;;;9.87;8.40;;;;;;;12.47;58.84;91912.13;5090749;28;20242;-75
2022/04/23 02:58:14;;;;;;;9.80;9.20;;;;;;;12.40;59.62;91917.06;5090133;28;20180;-75
2022/04/23 03:00:41;;;;;;;9.70;9.10;;;;;;;12.35;60.57;91921.63;5089164;28;20263;-74
2022/04/23 03:03:08;;;;;;;9.10;8.70;;;;;;;12.33;59.17;91910.69;5090135;28;20192;-75
2022/04/23 03:05:34;;;;;;;8.63;8.20;;;;;;;12.24;59.82;91930.84;5089842;28;20224;-75
2022/04/23 03:08:00;;;;;;;9.67;9.17;;;;;;;11.91;60.87;91921.81;5089383;28;20260;-74
2022/04/23 03:10:30;;;;;;;9.70;9.17;;;;;;;11.79;60.89;91911.16;5090533;28;20184;-75
2022/04/23 03:12:57;;;;;;;9.93;9.20;;;;;;;11.75;62.17;91907.63;5090053;28;20185;-75
2022/04/23 03:15:26;;;;;;;10.23;9.33;;;;;;;11.72;62.62;91903.00;5089048;28;20239;-75
2022/04/23 03:18:03;;;;;;;9.83;9.10;;;;;;;11.67;63.92;91900.53;5063810;28;20256;-74
2022/04/23 03:20:28;;;;;;;9.30;8.80;;;;;;;11.69;63.46;91903.63;5090081;28;20219;-75
2022/04/23 03:22:54;;;;;;;9.00;8.50;;;;;;;11.61;63.68;91896.47;5090403;28;20188;-75
2022/04/23 03:25:19;;;;;;;10.17;9.50;;;;;;;11.43;65.03;91907.91;5090408;28;20188;-75
2022/04/23 03:27:44;;;;;;;8.40;8.00;;;;;;;11.27;64.19;91895.22;5090178;28;20193;-75
2022/04/23 03:30:10;;;;;;;10.17;9.57;;;;;;;11.15;65.35;91897.63;5088918;28;20197;-74
2022/04/23 03:32:36;;;;;;;10.00;9.50;;;;;;;11.50;63.79;91903.03;5090479;28;20188;-75
2022/04/23 03:35:01;;;;;;;9.43;8.90;;;;;;;11.57;62.75;91906.75;5090007;28;20200;-74
2022/04/23 03:37:28;;;;;;;8.97;8.57;;;;;;;11.24;64.32;91901.06;5089307;28;20242;-75
2022/04/23 03:39:53;;;;;;;8.40;8.03;;;;;;;11.14;65.34;91919.56;5090636;28;20189;-75
2022/04/23 03:42:18;;;;;;;8.60;8.10;;;;;;;10.97;64.89;91924.69;5072710;28;20235;-75
2022/04/23 03:44:44;;;;;;;9.33;8.73;;;;;;;10.84;65.42;91927.38;5090119;28;20221;-75
2022/04/23 03:47:09;;;;;;;8.77;8.27;;;;;;;10.89;65.97;91938.47;5088857;28;20236;-75
2022/04/23 03:49:35;;;;;;;9.33;8.93;;;;;;;10.96;66.18;91938.81;5089073;28;20200;-74
2022/04/23 03:52:00;;;;;;;9.67;9.27;;;;;;;10.92;66.34;91911.78;5089107;28;20247;-74
2022/04/23 03:54:26;;;;;;;10.17;9.47;;;;;;;11.17;66.64;91952.94;5089585;28;20691;-74
2022/04/23 03:56:52;;;;;;;9.30;8.60;;;;;;;11.17;66.34;91955.53;5086806;28;20217;-75
2022/04/23 03:59:21;;;;;;;8.87;8.27;;;;;;;11.12;67.26;91963.53;5089079;28;20189;-75
2022/04/23 04:01:53;;;;;;;10.27;9.53;;;;;;;11.14;67.27;91963.97;5088875;28;20289;-74
2022/04/23 04:04:18;;;;;;;9.60;9.00;;;;;;;11.16;66.91;91969.69;5088303;28;20181;-75
2022/04/23 04:06:44;;;;;;;10.40;9.90;;;;;;;11.22;66.53;91952.81;5087040;28;20241;-77
2022/04/23 04:09:09;;;;;;;9.97;9.47;;;;;;;11.25;67.34;91954.84;5088922;28;20199;-78
2022/04/23 04:14:19;;;;;;;9.90;9.10;;;;;;;11.32;67.68;91957.81;5088651;28;20265;-77
2022/04/23 04:16:52;;;;;;;10.13;9.43;;;;;;;11.44;67.92;91954.63;5087976;28;20214;-75
2022/04/23 04:19:18;;;;;;;9.80;9.10;;;;;;;11.38;67.72;91962.94;5087465;28;20196;-76
2022/04/23 04:21:44;;;;;;;9.63;8.83;;;;;;;11.39;67.61;91939.84;5088029;28;20231;-80
2022/04/23 04:24:14;;;;;;;8.97;8.43;;;;;;;11.54;68.34;91970.09;5089623;28;20207;-78
2022/04/23 04:26:44;;;;;;;8.80;8.43;;;;;;;11.57;67.68;91966.88;5087779;28;20250;-76
2022/04/23 04:29:10;;;;;;;9.67;9.23;;;;;;;11.62;67.78;91960.75;5088055;28;20189;-78
2022/04/23 04:31:49;;;;;;;9.50;8.93;;;;;;;11.66;68.79;91967.72;5088947;28;20237;-77
2022/04/23 04:34:16;;;;;;;9.93;9.13;;;;;;;11.83;67.67;91967.03;5087988;28;20196;-79
2022/04/23 04:36:42;;;;;;;10.53;9.83;;;;;;;11.82;67.63;91966.25;5087416;28;20293;-76
2022/04/23 04:39:07;;;;;;;12.63;11.57;;;;;;;12.14;66.29;91979.00;5088961;28;20185;-76
2022/04/23 04:41:35;;;;;;;11.87;10.93;;;;;;;11.89;65.67;91976.28;5087710;28;20258;-78
2022/04/23 04:44:01;;;;;;;11.37;10.57;;;;;;;12.11;65.02;91969.13;5087885;28;20192;-85
2022/04/23 04:46:26;;;;;;;11.17;10.37;;;;;;;12.33;65.21;91971.69;5087509;28;20281;-88
2022/04/23 04:48:52;;;;;;;10.93;10.23;;;;;;;11.68;65.53;91967.41;5087666;28;20180;-83
2022/04/23 04:51:18;;;;;;;11.17;10.47;;;;;;;11.66;65.52;91940.81;5086254;28;20228;-82
2022/04/23 04:53:43;;;;;;;10.47;9.93;;;;;;;12.05;62.99;91961.72;5087959;28;20216;-79
2022/04/23 04:56:09;;;;;;;10.43;9.83;;;;;;;12.60;60.56;91981.13;5085595;28;20213;-78
2022/04/23 04:58:35;;;;;;;9.27;8.70;;;;;;;12.84;61.29;91976.25;5087351;28;20191;-76
2022/04/23 05:01:01;;;;;;;9.93;9.33;;;;;;;12.87;60.94;91991.34;5087026;28;20287;-78
2022/04/23 05:03:26;;;;;;;10.17;9.47;;;;;;;12.29;61.17;91998.75;5086543;28;20180;-79
2022/04/23 05:05:52;;;;;;;10.37;9.87;;;;;;;13.03;59.74;92004.81;5083129;28;20321;-81
2022/04/23 05:08:17;;;;;;;11.00;10.13;;;;;;;13.77;57.75;92014.78;5086815;28;20278;-80
2022/04/23 05:10:43;;;;;;;10.10;9.57;;;;;;;14.13;56.95;92007.25;5087072;28;20288;-80
2022/04/23 05:13:08;;;;;;;9.50;9.00;;;;;;;14.52;53.92;92014.84;5091228;28;20173;-81
2022/04/23 05:15:34;;;;;;;9.93;9.43;;;;;;;14.43;54.24;91997.59;5091520;28;20240;-81
2022/04/23 05:17:59;;;;;;;11.47;10.53;;;;;;;14.20;55.53;92012.81;5090651;28;20185;-79
2022/04/23 05:20:25;;;;;;;10.57;10.07;;;;;;;13.35;58.31;92039.19;5089107;28;20177;-79
2022/04/23 05:22:50;;;;;;;10.07;9.60;;;;;;;13.39;59.07;92055.84;5090018;28;20186;-81
2022/04/23 05:25:16;;;;;;;9.53;8.93;;;;;;;14.08;56.59;92062.56;5089423;28;20203;-79
2022/04/23 05:27:41;;;;;;;9.73;9.23;;;;;;;14.40;54.84;92072.53;5087845;28;20185;-79
2022/04/23 05:30:07;;;;;;;9.00;8.50;;;;;;;15.18;51.80;92080.81;5090449;28;20189;-78
2022/04/23 05:32:33;;;;;;;9.27;8.70;;;;;;;15.98;50.30;92085.69;5089393;28;20216;-79
2022/04/23 05:34:58;;;;;;;9.13;8.67;;;;;;;15.53;50.38;92082.19;5090634;28;20273;-80
2022/04/23 05:37:23;;;;;;;9.57;8.97;;;;;;;14.83;52.64;92082.09;5089138;28;20286;-79
2022/04/23 05:39:49;;;;;;;9.77;9.17;;;;;;;14.68;53.62;92077.38;5090199;28;20220;-79
2022/04/23 05:42:14;;;;;;;9.90;9.30;;;;;;;15.27;53.29;92073.66;5089280;28;20228;-80
2022/04/23 05:44:40;;;;;;;9.17;8.67;;;;;;;15.83;50.62;92073.09;5091096;28;20709;-78
2022/04/23 05:47:05;;;;;;;9.57;8.87;;;;;;;15.85;50.09;92073.53;5091044;28;20291;-78
2022/04/23 05:49:31;;;;;;;9.27;8.87;;;;;;;16.32;48.64;92072.19;5090333;28;20275;-79
2022/04/23 05:51:56;;;;;;;9.70;9.10;;;;;;;15.99;48.45;92072.19;5089153;28;20224;-82
2022/04/23 05:54:22;;;;;;;9.90;9.30;;;;;;;15.70;49.00;92059.09;5089576;28;20188;-82
2022/04/23 05:56:47;;;;;;;9.07;8.60;;;;;;;15.53;51.91;92069.03;5090055;28;20231;-81
2022/04/23 05:59:12;;;;;;;8.67;8.27;;;;;;;15.55;51.47;92067.59;5090140;28;20205;-82
2022/04/23 06:01:38;;;;;;;9.83;9.13;;;;;;;15.58;50.94;92058.31;5090084;28;20216;-81
2022/04/23 06:04:04;;;;;;;10.87;10.00;;;;;;;15.93;50.12;92059.53;5070001;28;20233;-81
2022/04/23 06:06:29;;;;;;;9.87;9.37;;;;;;;15.91;49.40;92072.25;5087662;28;20224;-83
2022/04/23 06:08:54;;;;;;;10.07;9.27;;;;;;;15.67;50.13;92080.81;5090915;28;20197;-80
2022/04/23 06:11:20;;;;;;;10.27;9.57;;;;;;;15.20;51.56;92071.53;5087615;28;20351;-81
2022/04/23 06:13:45;;;;;;;9.47;9.03;;;;;;;15.38;51.41;92069.56;5089931;28;20197;-80
2022/04/23 06:16:11;;;;;;;9.47;8.77;;;;;;;15.98;50.43;92080.41;5089604;28;20258;-81
2022/04/23 06:18:36;;;;;;;9.70;9.17;;;;;;;16.22;49.60;92080.47;5086825;28;20264;-81
2022/04/23 06:21:01;;;;;;;9.40;8.93;;;;;;;16.37;49.66;92082.50;5090243;28;20256;-81
2022/04/23 06:23:27;;;;;;;9.70;9.03;;;;;;;16.18;50.51;92079.59;5072839;28;20181;-80
2022/04/23 06:25:52;;;;;;;9.30;8.90;;;;;;;16.12;51.26;92065.09;5090619;28;20386;-78
2022/04/23 06:28:18;;;;;;;9.20;8.73;;;;;;;16.40;51.21;92067.91;5090917;28;20208;-80
2022/04/23 06:30:43;;;;;;;9.60;9.00;;;;;;;16.06;52.11;92076.94;5090050;28;20236;-80
2022/04/23 06:33:09;;;;;;;10.07;9.10;;;;;;;16.17;51.79;92077.28;5089613;28;20256;-79
2022/04/23 06:35:34;;;;;;;10.40;9.60;;;;;;;16.25;51.24;92090.34;5071507;28;20280;-81
2022/04/23 06:38:01;;;;;;;9.43;8.83;;;;;;;15.40;51.64;92070.03;5070413;28;20308;-83
2022/04/23 06:40:26;;;;;;;10.10;9.60;;;;;;;15.32;52.39;92058.47;5067249;28;20280;-81
2022/04/23 06:42:52;;;;;;;10.37;9.67;;;;;;;15.58;53.94;92072.22;5070146;28;20265;-80
2022/04/23 06:45:17;;;;;;;10.00;9.20;;;;;;;15.56;54.85;92061.25;5067253;28;20202;-81
2022/04/23 06:47:43;;;;;;;8.80;8.30;;;;;;;15.69;54.08;92048.91;5067497;28;20173;-80
2022/04/23 06:50:09;;;;;;;10.00;9.50;;;;;;;15.87;53.12;92069.53;5065971;28;20189;-81
2022/04/23 06:52:34;;;;;;;10.13;9.53;;;;;;;15.22;54.40;92071.97;5068408;28;21075;-82
2022/04/23 06:55:00;;;;;;;9.70;9.10;;;;;;;15.64;52.97;92080.69;5067940;28;20216;-80
2022/04/23 06:57:26;;;;;;;8.87;8.20;;;;;;;15.19;53.63;92061.34;5068778;28;20232;-84
2022/04/23 06:59:52;;;;;;;9.77;9.23;;;;;;;14.14;57.13;92071.03;5070858;28;20253;-87
2022/04/23 07:02:18;;;;;;;10.57;9.87;;;;;;;14.89;55.54;92070.31;5067785;28;20213;-89
2022/04/23 07:04:44;;;;;;;8.87;8.40;;;;;;;15.40;53.93;92080.56;5071116;28;20201;-82
2022/04/23 07:07:10;;;;;;;9.60;9.00;;;;;;;15.45;54.18;92080.38;5069391;28;20221;-84
2022/04/23 07:09:36;;;;;;;8.73;8.03;;;;;;;15.04;56.41;92081.06;5069059;28;20193;-86
2022/04/23 07:12:03;;;;;;;10.40;9.73;;;;;;;15.47;54.82;92075.56;5068394;28;20233;-86
2022/04/23 07:14:28;;;;;;;10.17;9.47;;;;;;;15.70;55.53;92082.03;5070413;28;20218;-87
2022/04/23 07:16:54;;;;;;;9.13;8.63;;;;;;;15.66;56.22;92100.31;5069525;28;20229;-83
2022/04/23 07:19:19;;;;;;;12.17;11.10;;;;;;;16.15;54.10;92082.09;5067590;28;20210;-85
2022/04/23 07:21:45;;;;;;;11.30;10.30;;;;;;;15.65;55.40;92095.38;5065928;28;20214;-85
2022/04/23 07:24:11;;;;;;;11.27;10.57;;;;;;;15.48;55.92;92072.63;5069612;28;20189;-85
2022/04/23 07:26:38;;;;;;;9.97;9.33;;;;;;;15.75;55.31;92090.50;5069598;28;21148;-85
2022/04/23 07:29:08;;;;;;;10.00;9.40;;;;;;;15.98;55.84;92104.84;5068967;28;20227;-83
2022/04/23 07:31:36;;;;;;;11.40;10.60;;;;;;;15.46;57.56;92110.84;5067903;28;20226;-83
2022/04/23 07:39:30;;;;;;;11.23;10.43;;;;;;;16.00;55.82;92104.53;5088202;28;20241;-83
2022/04/23 07:41:55;;;;;;;10.80;10.10;;;;;;;16.03;56.67;92131.00;5087107;28;20216;-84
2022/04/23 07:44:22;;;;;;;11.20;10.50;;;;;;;15.95;56.91;92134.47;5089393;28;20192;-82
2022/04/23 07:46:48;;;;;;;11.03;10.23;;;;;;;16.05;57.04;92128.03;5088457;28;20208;-83
2022/04/23 07:49:14;;;;;;;11.13;10.43;;;;;;;15.95;57.40;92134.47;5087385;28;20200;-84
2022/04/23 07:51:41;;;;;;;10.23;9.60;;;;;;;16.15;56.80;92138.19;5088782;28;20223;-83
2022/04/23 07:54:06;;;;;;;10.47;9.63;;;;;;;16.32;58.46;92148.56;5088691;28;20177;-77
2022/04/23 07:56:32;;;;;;;10.27;9.50;;;;;;;16.27;57.47;92150.63;5088145;28;20228;-80
2022/04/23 07:58:57;;;;;;;10.00;9.37;;;;;;;15.88;58.69;92154.50;5088796;28;20185;-80
2022/04/23 08:01:23;;;;;;;9.43;8.93;;;;;;;15.65;60.32;92158.53;5088601;28;20231;-85
2022/04/23 08:03:48;;;;;;;9.67;9.10;;;;;;;15.30;60.56;92146.66;5088536;28;20231;-86
2022/04/23 08:06:13;;;;;;;10.07;9.47;;;;;;;14.74;62.72;92153.06;5084626;28;20225;-84
2022/04/23 08:08:39;;;;;;;9.97;9.27;;;;;;;15.59;61.25;92141.41;5072364;28;20721;-86
2022/04/23 08:11:06;;;;;;;10.47;9.40;;;;;;;15.83;59.34;92147.56;5089392;28;20228;-85
2022/04/23 08:13:32;;;;;;;8.97;8.47;;;;;;;15.54;60.55;92157.38;5069971;28;20769;-90
2022/04/23 08:15:59;;;;;;;10.00;9.30;;;;;;;15.50;59.65;92122.28;5090567;28;20224;-89
2022/04/23 08:18:26;;;;;;;9.63;8.93;;;;;;;15.07;62.56;92163.78;5087819;28;20195;-90
2022/04/23 08:20:52;;;;;;;9.33;8.73;;;;;;;14.80;65.30;92151.06;5071824;28;20258;-87
2022/04/23 08:23:19;;;;;;;9.13;8.63;;;;;;;14.86;65.83;92165.56;5090035;28;20212;-90
2022/04/23 08:25:45;;;;;;;8.83;8.37;;;;;;;15.12;65.76;92164.38;5088319;28;20232;-81
2022/04/23 08:30:55;;;;;;;9.17;8.77;;;;;;;14.86;66.13;92171.59;5088414;28;20247;-84
2022/04/23 08:33:21;;;;;;;10.07;9.57;;;;;;;14.48;68.36;92171.56;5087992;28;20189;-83
2022/04/23 08:35:46;;;;;;;8.77;8.37;;;;;;;14.10;69.04;92154.88;5069727;28;20229;-84
2022/04/23 08:38:12;;;;;;;8.97;8.53;;;;;;;13.94;70.66;92161.69;5086800;28;20216;-91
2022/04/23 08:40:44;;;;;;;8.33;7.93;;;;;;;14.04;70.87;92166.63;5087983;28;20221;-88
2022/04/23 08:43:10;;;;;;;8.97;8.37;;;;;;;14.17;70.58;92159.66;5089885;28;20180;-85
2022/04/23 08:45:37;;;;;;;9.47;9.07;;;;;;;14.29;69.91;92167.72;5085384;28;20765;-85
2022/04/23 08:48:12;;;;;;;9.50;9.10;;;;;;;13.91;70.49;92178.06;5069899;28;20222;-81
2022/04/23 08:50:39;;;;;;;9.97;9.43;;;;;;;14.06;69.67;92172.34;5084497;28;20885;-83
2022/04/23 08:53:15;;;;;;;8.87;8.47;;;;;;;14.02;69.82;92181.91;5087559;28;20177;-82
2022/04/23 08:55:44;;;;;;;9.07;8.67;;;;;;;14.27;69.33;92186.41;5084712;28;20284;-77
2022/04/23 08:58:12;;;;;;;9.37;8.60;;;;;;;14.34;67.48;92170.19;5086426;28;20195;-81
2022/04/23 09:00:37;;;;;;;9.50;8.60;;;;;;;14.66;65.91;92190.69;5086240;28;20217;-84
2022/04/23 09:03:03;;;;;;;8.77;8.20;;;;;;;14.62;66.00;92160.06;5087064;28;20249;-83
2022/04/23 09:05:30;;;;;;;8.03;7.43;;;;;;;15.01;64.84;92188.69;5085661;28;20228;-82
2022/04/23 09:07:57;;;;;;;9.20;8.70;;;;;;;14.78;65.40;92190.00;5086904;28;20244;-83
2022/04/23 09:10:43;;;;;;;9.30;8.73;;;;;;;15.19;64.44;92183.06;5088699;28;20193;-80
2022/04/23 09:13:08;;;;;;;8.00;7.70;;;;;;;14.87;63.58;92165.25;5089149;28;20241;-81
2022/04/23 09:24:09;;;;;;;8.23;7.93;;;;;;;14.45;65.85;92158.25;5088053;28;20200;-83
2022/04/23 09:26:35;;;;;;;7.20;6.70;;;;;;;14.62;65.44;92152.19;5087835;28;20244;-82
2022/04/23 09:29:20;;;;;;;8.37;7.90;;;;;;;14.75;64.09;92154.63;5088975;28;20226;-80
2022/04/23 09:31:45;;;;;;;8.80;8.40;;;;;;;14.82;65.43;92164.66;5087631;28;20221;-79
2022/04/23 09:34:15;;;;;;;8.07;7.77;;;;;;;14.93;65.41;92144.81;5087977;28;20189;-84
2022/04/23 09:37:00;;;;;;;8.87;8.53;;;;;;;15.00;66.21;92166.13;5077064;28;20250;-85
2022/04/23 09:39:38;;;;;;;8.43;7.80;;;;;;;14.69;66.06;92155.13;5065925;28;20285;-87
2022/04/23 09:42:19;;;;;;;8.43;8.03;;;;;;;15.35;63.74;92162.25;5068558;28;20217;-84
2022/04/23 09:44:46;;;;;;;9.07;8.67;;;;;;;15.76;62.95;92152.59;5066632;28;20197;-91
2022/04/23 09:47:30;;;;;;;7.90;7.60;;;;;;;16.15;60.25;92153.22;5066016;28;20228;-77
2022/04/23 09:49:55;;;;;;;7.43;7.13;;;;;;;16.50;58.48;92155.22;5068336;28;20216;-83
2022/04/23 09:52:29;;;;;;;9.27;8.57;;;;;;;16.23;58.67;92129.44;5067333;28;20225;-78
2022/04/23 09:54:56;;;;;;;7.93;7.43;;;;;;;16.58;58.00;92156.25;5070228;28;20204;-84
2022/04/23 09:57:22;;;;;;;9.13;8.73;;;;;;;16.22;59.19;92151.59;5071486;28;20221;-78
2022/04/23 09:59:52;;;;;;;7.83;7.53;;;;;;;15.96;59.95;92154.44;5072249;28;20186;-83
2022/04/23 10:02:21;;;;;;;8.90;8.40;;;;;;;17.08;57.49;92133.81;5071336;28;20210;-81
2022/04/23 10:04:46;;;;;;;8.80;8.40;;;;;;;17.46;56.75;92139.53;5071496;28;20204;-84
2022/04/23 10:07:16;;;;;;;9.37;8.90;;;;;;;17.65;55.98;92151.41;5069995;28;20221;-78
2022/04/23 10:09:45;;;;;;;8.17;7.70;;;;;;;16.97;56.11;92156.44;5069473;28;20277;-76
2022/04/23 10:12:16;;;;;;;8.50;8.10;;;;;;;17.22;56.33;92152.72;5070667;28;20244;-76
2022/04/23 10:14:56;;;;;;;8.23;7.93;;;;;;;16.11;60.24;92154.97;5072374;28;20296;-76
2022/04/23 10:17:24;;;;;;;8.53;8.13;;;;;;;15.76;59.93;92126.28;5061482;28;20229;-76
2022/04/23 10:19:50;;;;;;;7.70;7.40;;;;;;;15.69;61.45;92151.53;5070556;28;20252;-76
2022/04/23 10:22:20;;;;;;;9.73;9.23;;;;;;;16.13;60.01;92129.84;5069996;28;20231;-75
2022/04/23 10:25:25;;;;;;;8.83;8.43;;;;;;;16.05;61.08;92144.63;5069186;28;20185;-75
2022/04/23 10:27:55;;;;;;;9.30;8.70;;;;;;;16.26;60.50;92144.59;5070681;28;20236;-75
2022/04/23 10:30:21;;;;;;;9.50;8.80;;;;;;;15.30;63.11;92128.25;5069517;28;20197;-76
2022/04/23 10:32:47;;;;;;;8.07;7.57;;;;;;;15.74;62.82;92135.56;5070736;28;20193;-75
2022/04/23 10:35:18;;;;;;;9.10;8.70;;;;;;;15.50;64.11;92138.06;5069132;28;20221;-75
2022/04/23 10:37:50;;;;;;;8.90;8.40;;;;;;;15.84;61.82;92138.56;5083634;28;20225;-75
2022/04/23 10:40:17;;;;;;;8.90;8.50;;;;;;;16.09;60.86;92142.13;5087781;28;20187;-75
2022/04/23 10:43:09;;;;;;;9.17;8.67;;;;;;;16.43;59.92;92141.81;5091997;28;20168;-75
2022/04/23 10:45:36;;;;;;;8.27;7.87;;;;;;;16.35;60.44;92141.88;5089877;28;20269;-75
2022/04/23 10:48:23;;;;;;;8.10;7.80;;;;;;;16.53;58.76;92143.28;5067453;28;20189;-75
2022/04/23 10:51:01;;;;;;;8.93;8.53;;;;;;;16.56;59.12;92142.63;5088763;28;20243;-75
2022/04/23 10:53:47;;;;;;;9.40;9.00;;;;;;;16.60;58.21;92146.94;5090165;28;20230;-75
2022/04/23 10:56:17;;;;;;;8.70;8.10;;;;;;;16.46;59.17;92137.75;5089334;28;20242;-75
2022/04/23 10:58:43;;;;;;;9.07;8.57;;;;;;;16.83;57.71;92142.03;5090912;28;20235;-76
2022/04/23 11:01:21;;;;;;;7.97;7.33;;;;;;;16.96;58.07;92152.28;5089654;28;20231;-75
2022/04/23 11:03:51;;;;;;;8.13;7.67;;;;;;;17.05;57.69;92139.75;5090591;28;20250;-76
2022/04/23 11:12:26;;;;;;;10.90;10.17;;;;;;;17.74;58.04;92152.84;5090555;28;20232;-76
2022/04/23 11:14:56;;;;;;;8.63;8.23;;;;;;;18.17;56.26;92152.16;5089209;28;20250;-75
2022/04/23 11:17:45;;;;;;;10.67;9.73;;;;;;;18.62;54.10;92168.53;5089616;28;20233;-75
2022/04/23 11:20:11;;;;;;;8.50;8.13;;;;;;;18.74;53.71;92144.69;5089104;28;20204;-76
2022/04/23 11:22:37;;;;;;;9.00;8.50;;;;;;;19.02;52.33;92162.03;5089984;28;20200;-74
2022/04/23 11:25:03;;;;;;;9.27;8.77;;;;;;;18.62;52.90;92142.09;5089124;28;20197;-75
2022/04/23 11:27:32;;;;;;;9.30;8.60;;;;;;;18.52;51.54;92158.47;5070572;28;20220;-75
2022/04/23 11:29:58;;;;;;;8.93;8.47;;;;;;;18.01;52.25;92143.44;5089282;28;20200;-76
2022/04/23 11:32:31;;;;;;;8.13;7.83;;;;;;;18.28;52.45;92147.94;5090112;28;20237;-75
2022/04/23 11:35:03;;;;;;;8.60;8.10;;;;;;;18.30;51.77;92143.09;5090384;28;20304;-75
2022/04/23 11:37:29;;;;;;;8.73;8.13;;;;;;;17.78;52.86;92142.34;5088780;28;20247;-75
2022/04/23 11:40:09;;;;;;;8.07;7.67;;;;;;;17.72;53.72;92146.34;5089390;28;20252;-75
2022/04/23 11:42:42;;;;;;;9.10;8.33;;;;;;;18.01;52.36;92154.00;5088014;28;20235;-76
2022/04/23 11:45:09;;;;;;;8.90;8.30;;;;;;;18.09;51.57;92153.06;5089475;28;20204;-74
2022/04/23 11:47:35;;;;;;;9.57;8.97;;;;;;;18.17;53.46;92162.72;5069646;28;20263;-76
2022/04/23 11:50:30;;;;;;;8.80;8.40;;;;;;;18.28;52.22;92132.09;5087750;28;20196;-76
2022/04/23 11:52:58;;;;;;;8.50;8.10;;;;;;;17.99;53.24;92150.91;5073287;28;20212;-75
2022/04/23 11:55:28;;;;;;;8.07;7.57;;;;;;;17.82;52.34;92141.34;5087733;28;20220;-76
2022/04/23 11:58:00;;;;;;;8.67;8.17;;;;;;;17.70;53.25;92153.84;5088589;28;20189;-75
2022/04/23 12:00:27;;;;;;;9.40;8.83;;;;;;;17.18;54.41;92151.09;5088543;28;20216;-76